createdAt,value
2023-02-12T00:01:14.020Z,94568.53
2023-02-12T00:04:18.573Z,94568.78
2023-02-12T00:07:22.287Z,94572.44
2023-02-12T00:10:26.185Z,94568.69
2023-02-12T00:13:32.292Z,94574.66
2023-02-12T00:16:35.508Z,94579.63
2023-02-12T00:19:39.243Z,94575.75
2023-02-12T00:22:42.713Z,94572.25
2023-02-12T00:25:46.430Z,94584.25
2023-02-12T00:28:51.043Z,94585.09
2023-02-12T00:31:56.321Z,94586.66
2023-02-12T00:35:02.506Z,94587.63
2023-02-12T00:38:06.198Z,94580.09
2023-02-12T00:41:10.086Z,94582.59
2023-02-12T00:44:13.437Z,94586.84
2023-02-12T00:47:17.611Z,94588.28
2023-02-12T00:50:21.017Z,94583.84
2023-02-12T00:53:24.029Z,94592.91
2023-02-12T00:56:27.664Z,94588.25
2023-02-12T00:59:31.538Z,94585.25
2023-02-12T01:02:35.101Z,94581.38
2023-02-12T01:05:38.933Z,94577.41
2023-02-12T01:08:41.936Z,94568.59
2023-02-12T01:11:45.598Z,94567.53
2023-02-12T01:14:49.866Z,94572.19
2023-02-12T01:17:54.071Z,94575.94
2023-02-12T01:20:59.838Z,94573.69
2023-02-12T01:24:04.675Z,94585.03
2023-02-12T01:27:08.045Z,94575.41
2023-02-12T01:30:13.941Z,94593.03
2023-02-12T01:33:18.072Z,94586.19
2023-02-12T01:36:22.753Z,94599.38
2023-02-12T01:39:26.057Z,94585.03
2023-02-12T01:42:30.704Z,94604.09
2023-02-12T01:45:33.719Z,94616.34
2023-02-12T01:48:43.952Z,94614.34
2023-02-12T01:51:49.559Z,94615.31
2023-02-12T01:54:57.248Z,94608.78
2023-02-12T01:58:01.165Z,94612.47
2023-02-12T02:01:08.881Z,94616.50
2023-02-12T02:04:20.386Z,94612.31
2023-02-12T02:07:25.171Z,94615.06
2023-02-12T02:10:29.839Z,94620.66
2023-02-12T02:13:51.573Z,94616.88
2023-02-12T02:17:10.209Z,94621.25
2023-02-12T02:20:23.228Z,94620.94
2023-02-12T02:23:38.127Z,94626.56
2023-02-12T02:27:01.342Z,94611.81
2023-02-12T02:30:46.081Z,94620.13
2023-02-12T02:33:59.204Z,94617.88
2023-02-12T02:37:30.041Z,94612.66
2023-02-12T02:40:40.816Z,94621.94
2023-02-12T02:43:51.013Z,94617.44
2023-02-12T02:46:59.641Z,94625.06
2023-02-12T02:50:08.404Z,94617.00
2023-02-12T02:53:23.165Z,94617.31
2023-02-12T02:56:28.614Z,94617.16
2023-02-12T02:59:39.230Z,94629.16
2023-02-12T03:02:47.578Z,94641.38
2023-02-12T03:05:54.491Z,94640.53
2023-02-12T03:09:02.697Z,94622.53
2023-02-12T03:12:34.508Z,94627.25
2023-02-12T03:15:47.222Z,94612.63
2023-02-12T03:19:07.902Z,94611.34
2023-02-12T03:22:14.971Z,94604.31
2023-02-12T03:25:26.237Z,94615.63
2023-02-12T03:28:33.220Z,94606.31
2023-02-12T03:31:55.056Z,94610.22
2023-02-12T03:35:10.370Z,94611.91
2023-02-12T03:38:32.614Z,94605.31
2023-02-12T03:41:44.244Z,94607.66
2023-02-12T03:44:54.023Z,94612.72
2023-02-12T03:48:00.181Z,94604.16
2023-02-12T03:51:28.506Z,94594.19
2023-02-12T03:54:32.485Z,94596.63
2023-02-12T03:57:45.738Z,94589.72
2023-02-12T04:00:49.818Z,94590.13
2023-02-12T04:03:54.199Z,94594.28
2023-02-12T04:06:58.062Z,94587.41
2023-02-12T04:10:02.240Z,94594.00
2023-02-12T04:13:15.563Z,94590.13
2023-02-12T04:16:57.501Z,94591.19
2023-02-12T04:20:09.449Z,94568.25
2023-02-12T04:23:21.689Z,94565.34
2023-02-12T04:26:27.852Z,94560.94
2023-02-12T04:29:52.080Z,94559.38
2023-02-12T04:33:01.140Z,94562.19
2023-02-12T04:36:22.563Z,94574.47
2023-02-12T04:39:29.812Z,94565.06
2023-02-12T04:42:49.535Z,94565.56
2023-02-12T04:45:54.056Z,94570.59
2023-02-12T04:48:59.784Z,94575.09
2023-02-12T04:52:03.543Z,94557.41
2023-02-12T04:55:06.949Z,94545.63
2023-02-12T04:58:10.285Z,94536.47
2023-02-12T05:01:13.545Z,94531.69
2023-02-12T05:04:18.576Z,94531.25
2023-02-12T05:07:21.514Z,94544.75
2023-02-12T05:10:25.630Z,94558.03
2023-02-12T05:13:29.413Z,94547.56
2023-02-12T05:16:33.243Z,94553.16
2023-02-12T05:19:36.306Z,94558.94
2023-02-12T05:22:40.240Z,94570.63
2023-02-12T05:25:43.201Z,94566.38
2023-02-12T05:28:46.651Z,94560.38
2023-02-12T05:31:50.938Z,94546.28
2023-02-12T05:34:54.684Z,94540.69
2023-02-12T05:37:58.460Z,94546.16
2023-02-12T05:41:13.398Z,94553.00
2023-02-12T05:44:16.986Z,94556.09
2023-02-12T05:47:19.934Z,94576.75
2023-02-12T05:50:23.268Z,94568.91
2023-02-12T05:53:36.156Z,94580.56
2023-02-12T05:56:45.618Z,94576.34
2023-02-12T05:59:48.549Z,94563.25
2023-02-12T06:02:51.595Z,94542.34
2023-02-12T06:05:55.508Z,94559.34
2023-02-12T06:08:59.668Z,94549.88
2023-02-12T06:12:03.878Z,94571.19
2023-02-12T06:15:07.966Z,94568.00
2023-02-12T06:18:11.751Z,94575.44
2023-02-12T06:21:15.181Z,94569.88
2023-02-12T06:24:18.670Z,94568.50
2023-02-12T06:27:21.686Z,94566.81
2023-02-12T06:30:24.869Z,94555.13
2023-02-12T06:33:28.329Z,94553.28
2023-02-12T06:36:32.125Z,94571.75
2023-02-12T06:39:35.145Z,94574.66
2023-02-12T06:42:38.081Z,94563.41
2023-02-12T06:45:41.114Z,94573.81
2023-02-12T06:48:44.141Z,94550.91
2023-02-12T06:51:47.186Z,94547.16
2023-02-12T06:54:50.154Z,94541.66
2023-02-12T06:57:53.529Z,94561.06
2023-02-12T07:00:56.696Z,94553.31
2023-02-12T07:04:05.614Z,94561.66
2023-02-12T07:07:09.921Z,94562.63
2023-02-12T07:10:13.180Z,94539.28
2023-02-12T07:13:16.940Z,94539.72
2023-02-12T07:16:21.072Z,94526.78
2023-02-12T07:19:24.717Z,94538.34
2023-02-12T07:22:28.177Z,94534.06
2023-02-12T07:25:31.199Z,94558.13
2023-02-12T07:28:35.565Z,94552.00
2023-02-12T07:31:40.093Z,94560.97
2023-02-12T07:34:44.125Z,94566.47
2023-02-12T07:37:47.904Z,94573.31
2023-02-12T07:40:51.964Z,94569.31
2023-02-12T07:44:00.136Z,94563.56
2023-02-12T07:47:04.516Z,94555.06
2023-02-12T07:50:07.843Z,94561.19
2023-02-12T07:53:11.880Z,94549.56
2023-02-12T07:56:18.309Z,94548.50
2023-02-12T07:59:22.461Z,94547.72
2023-02-12T08:02:26.194Z,94548.78
2023-02-12T08:05:29.248Z,94546.56
2023-02-12T08:08:32.887Z,94563.41
2023-02-12T08:11:37.393Z,94559.13
2023-02-12T08:14:40.430Z,94565.34
2023-02-12T08:17:44.112Z,94554.78
2023-02-12T08:20:47.734Z,94561.38
2023-02-12T08:23:51.270Z,94554.56
2023-02-12T08:26:55.407Z,94545.06
2023-02-12T08:29:59.122Z,94543.75
2023-02-12T08:33:03.238Z,94531.50
2023-02-12T08:36:12.879Z,94540.97
2023-02-12T08:39:16.903Z,94541.81
2023-02-12T08:42:20.723Z,94534.47
2023-02-12T08:45:23.694Z,94539.63
2023-02-12T08:48:27.278Z,94549.72
2023-02-12T08:51:33.926Z,94556.56
2023-02-12T08:54:36.876Z,94546.72
2023-02-12T08:57:40.576Z,94541.38
2023-02-12T09:00:44.448Z,94536.13
2023-02-12T09:03:49.473Z,94526.09
2023-02-12T09:06:54.075Z,94523.56
2023-02-12T09:09:57.952Z,94514.59
2023-02-12T09:13:02.070Z,94518.50
2023-02-12T09:16:07.439Z,94506.63
2023-02-12T09:19:14.525Z,94517.28
2023-02-12T09:22:17.662Z,94526.78
2023-02-12T09:25:20.651Z,94520.16
2023-02-12T09:28:23.953Z,94515.41
2023-02-12T09:31:32.129Z,94517.72
2023-02-12T09:34:37.208Z,94520.13
2023-02-12T09:37:41.349Z,94526.22
2023-02-12T09:41:21.645Z,94519.59
2023-02-12T09:44:51.581Z,94516.47
2023-02-12T09:48:05.466Z,94526.97
2023-02-12T09:51:10.723Z,94526.25
2023-02-12T09:54:17.879Z,94529.50
2023-02-12T09:57:39.081Z,94522.09
2023-02-12T10:00:42.270Z,94522.19
2023-02-12T10:03:50.198Z,94530.50
2023-02-12T10:07:12.645Z,94531.81
2023-02-12T10:10:43.824Z,94547.22
2023-02-12T10:14:26.973Z,94558.16
2023-02-12T10:17:42.772Z,94558.16
2023-02-12T10:21:04.097Z,94567.34
2023-02-12T10:24:38.988Z,94572.53
2023-02-12T10:27:55.439Z,94570.53
2023-02-12T10:31:03.652Z,94578.06
2023-02-12T10:34:34.757Z,94588.66
2023-02-12T10:37:45.734Z,94588.38
2023-02-12T10:40:51.316Z,94588.88
2023-02-12T10:43:54.452Z,94590.53
2023-02-12T10:46:58.169Z,94597.91
2023-02-12T10:50:17.402Z,94605.91
2023-02-12T10:53:27.318Z,94601.66
2023-02-12T10:56:31.121Z,94608.00
2023-02-12T10:59:35.991Z,94616.28
2023-02-12T11:02:40.084Z,94614.44
2023-02-12T11:05:45.272Z,94625.03
2023-02-12T11:08:48.932Z,94619.91
2023-02-12T11:11:52.318Z,94628.91
2023-02-12T11:15:02.498Z,94626.53
2023-02-12T11:18:11.978Z,94616.00
2023-02-12T11:21:14.965Z,94627.03
2023-02-12T11:24:27.330Z,94634.09
2023-02-12T11:27:33.476Z,94636.22
2023-02-12T11:30:37.506Z,94630.16
2023-02-12T11:33:41.472Z,94623.81
2023-02-12T11:36:55.891Z,94625.50
2023-02-12T11:40:00.267Z,94625.69
2023-02-12T11:43:08.883Z,94628.03
2023-02-12T11:46:22.378Z,94625.72
2023-02-12T11:49:33.144Z,94631.59
2023-02-12T11:52:41.144Z,94632.31
2023-02-12T11:55:55.706Z,94634.94
2023-02-12T11:59:31.268Z,94637.97
2023-02-12T12:02:40.789Z,94622.47
2023-02-12T12:06:00.331Z,94616.34
2023-02-12T12:09:30.606Z,94615.59
2023-02-12T12:12:36.392Z,94617.25
2023-02-12T12:16:06.620Z,94621.75
2023-02-12T12:19:57.515Z,94623.16
2023-02-12T12:23:33.086Z,94626.94
2023-02-12T12:26:36.719Z,94619.63
2023-02-12T12:30:04.340Z,94630.94
2023-02-12T12:33:18.036Z,94632.81
2023-02-12T12:36:34.275Z,94632.81
2023-02-12T12:39:46.238Z,94636.81
2023-02-12T12:43:01.688Z,94647.16
2023-02-12T12:46:10.846Z,94634.44
2023-02-12T12:49:23.728Z,94638.66
2023-02-12T12:52:53.722Z,94640.06
2023-02-12T12:56:34.275Z,94636.50
2023-02-12T13:00:01.938Z,94628.75
2023-02-12T13:03:15.002Z,94627.53
2023-02-12T13:06:36.519Z,94643.09
2023-02-12T13:10:07.275Z,94632.75
2023-02-12T13:13:30.707Z,94631.09
2023-02-12T13:16:48.095Z,94631.56
2023-02-12T13:19:57.196Z,94639.09
2023-02-12T13:23:05.319Z,94639.81
2023-02-12T13:26:31.114Z,94641.00
2023-02-12T13:29:53.300Z,94645.66
2023-02-12T13:33:13.671Z,94648.97
2023-02-12T13:36:16.974Z,94645.47
2023-02-12T13:39:31.345Z,94654.88
2023-02-12T13:42:44.654Z,94645.22
2023-02-12T13:46:15.381Z,94639.31
2023-02-12T13:49:46.356Z,94651.53
2023-02-12T13:52:58.632Z,94638.34
2023-02-12T13:56:07.981Z,94633.38
2023-02-12T13:59:33.117Z,94622.81
2023-02-12T14:02:38.937Z,94621.13
2023-02-12T14:05:43.039Z,94611.03
2023-02-12T14:08:53.238Z,94603.06
2023-02-12T14:11:57.463Z,94621.66
2023-02-12T14:15:09.966Z,94622.59
2023-02-12T14:18:37.892Z,94637.19
2023-02-12T14:21:41.547Z,94623.81
2023-02-12T14:24:53.184Z,94617.59
2023-02-12T14:28:07.346Z,94608.63
2023-02-12T14:31:23.796Z,94630.97
2023-02-12T14:34:36.567Z,94608.63
2023-02-12T14:37:40.768Z,94615.41
2023-02-12T14:40:47.482Z,94623.13
2023-02-12T14:44:03.692Z,94621.91
2023-02-12T14:47:35.655Z,94621.94
2023-02-12T14:50:46.662Z,94626.00
2023-02-12T14:53:51.522Z,94622.25
2023-02-12T14:56:58.529Z,94619.22
2023-02-12T15:00:27.367Z,94626.16
2023-02-12T15:03:40.561Z,94625.28
2023-02-12T15:06:51.774Z,94629.28
2023-02-12T15:10:08.469Z,94616.88
2023-02-12T15:13:23.481Z,94615.47
2023-02-12T15:16:48.790Z,94623.72
2023-02-12T15:19:54.866Z,94634.47
2023-02-12T15:22:59.176Z,94639.41
2023-02-12T15:26:03.864Z,94639.94
2023-02-12T15:29:08.257Z,94637.81
2023-02-12T15:32:20.317Z,94637.81
2023-02-12T15:35:29.558Z,94654.94
2023-02-12T15:38:36.123Z,94656.38
2023-02-12T15:41:42.831Z,94665.53
2023-02-12T15:44:46.018Z,94668.38
2023-02-12T15:48:03.163Z,94670.50
2023-02-12T15:51:18.916Z,94669.31
2023-02-12T15:54:22.865Z,94671.88
2023-02-12T15:57:27.308Z,94666.69
2023-02-12T16:01:01.931Z,94669.25
2023-02-12T16:04:07.818Z,94654.47
2023-02-12T16:07:13.152Z,94644.53
2023-02-12T16:10:20.901Z,94652.94
2023-02-12T16:13:36.638Z,94643.94
2023-02-12T16:16:42.025Z,94655.06
2023-02-12T16:19:58.555Z,94653.59
2023-02-12T16:23:07.554Z,94648.59
2023-02-12T16:26:25.094Z,94649.53
2023-02-12T16:29:30.599Z,94634.03
2023-02-12T16:32:40.081Z,94641.09
2023-02-12T16:35:43.211Z,94648.34
2023-02-12T16:38:55.845Z,94658.69
2023-02-12T16:41:59.693Z,94653.25
2023-02-12T16:45:23.230Z,94656.34
2023-02-12T16:48:27.170Z,94651.81
2023-02-12T16:51:34.280Z,94652.06
2023-02-12T16:54:37.337Z,94648.09
2023-02-12T16:57:41.380Z,94657.00
2023-02-12T17:00:44.562Z,94648.47
2023-02-12T17:03:50.965Z,94659.34
2023-02-12T17:06:54.972Z,94654.66
2023-02-12T17:09:59.026Z,94654.16
2023-02-12T17:13:02.277Z,94650.13
2023-02-12T17:16:06.934Z,94653.00
2023-02-12T17:19:11.062Z,94644.47
2023-02-12T17:22:26.144Z,94647.38
2023-02-12T17:25:30.825Z,94654.00
2023-02-12T17:28:35.063Z,94654.09
2023-02-12T17:31:39.461Z,94648.94
2023-02-12T17:34:48.725Z,94648.22
2023-02-12T17:37:53.112Z,94651.50
2023-02-12T17:40:56.752Z,94648.91
2023-02-12T17:44:00.156Z,94647.28
2023-02-12T17:47:04.359Z,94653.44
2023-02-12T17:50:12.946Z,94649.91
2023-02-12T17:53:16.944Z,94650.38
2023-02-12T17:56:22.572Z,94647.75
2023-02-12T17:59:26.912Z,94647.28
2023-02-12T18:02:30.757Z,94637.78
2023-02-12T18:05:34.786Z,94643.63
2023-02-12T18:08:39.171Z,94651.41
2023-02-12T18:11:42.995Z,94633.56
2023-02-12T18:14:46.684Z,94650.22
2023-02-12T18:17:50.275Z,94641.72
2023-02-12T18:20:53.390Z,94639.09
2023-02-12T18:23:56.935Z,94648.72
2023-02-12T18:26:59.875Z,94645.44
2023-02-12T18:30:04.054Z,94651.53
2023-02-12T18:33:07.021Z,94644.69
2023-02-12T18:36:17.737Z,94642.59
2023-02-12T18:39:21.520Z,94637.91
2023-02-12T18:42:24.917Z,94636.78
2023-02-12T18:45:28.285Z,94636.78
2023-02-12T18:48:31.237Z,94633.91
2023-02-12T18:51:37.662Z,94629.06
2023-02-12T18:54:41.016Z,94625.47
2023-02-12T18:57:43.978Z,94626.19
2023-02-12T19:00:47.276Z,94621.00
2023-02-12T19:03:59.491Z,94618.94
2023-02-12T19:07:02.645Z,94619.84
2023-02-12T19:10:06.425Z,94618.47
2023-02-12T19:13:10.987Z,94615.66
2023-02-12T19:16:16.602Z,94620.13
2023-02-12T19:19:21.541Z,94609.09
2023-02-12T19:22:24.513Z,94604.88
2023-02-12T19:25:28.122Z,94613.09
2023-02-12T19:28:31.900Z,94597.13
2023-02-12T19:31:41.937Z,94608.66
2023-02-12T19:34:46.521Z,94607.50
2023-02-12T19:37:50.218Z,94594.59
2023-02-12T19:41:01.965Z,94607.03
2023-02-12T19:44:05.187Z,94606.59
2023-02-12T19:47:09.524Z,94605.66
2023-02-12T19:50:13.777Z,94609.38
2023-02-12T19:53:17.495Z,94608.19
2023-02-12T19:56:20.934Z,94608.63
2023-02-12T19:59:26.143Z,94603.34
2023-02-12T20:02:29.646Z,94610.13
2023-02-12T20:05:32.685Z,94603.56
2023-02-12T20:08:36.678Z,94611.00
2023-02-12T20:11:39.933Z,94608.41
2023-02-12T20:14:43.935Z,94596.66
2023-02-12T20:17:46.878Z,94599.41
2023-02-12T20:20:50.995Z,94606.25
2023-02-12T20:23:54.697Z,94607.84
2023-02-12T20:26:59.894Z,94591.41
2023-02-12T20:30:02.916Z,94595.69
2023-02-12T20:33:06.988Z,94595.28
2023-02-12T20:36:14.612Z,94596.22
2023-02-12T20:39:21.043Z,94612.13
2023-02-12T20:42:24.100Z,94609.84
2023-02-12T20:45:27.397Z,94605.41
2023-02-12T20:48:30.408Z,94603.66
2023-02-12T20:51:34.058Z,94600.66
2023-02-12T20:54:38.709Z,94600.66
2023-02-12T20:57:42.613Z,94585.13
2023-02-12T21:00:46.297Z,94597.63
2023-02-12T21:03:51.769Z,94598.31
2023-02-12T21:06:54.773Z,94593.16
2023-02-12T21:09:58.528Z,94599.56
2023-02-12T21:13:02.420Z,94606.59
2023-02-12T21:16:07.895Z,94607.03
2023-02-12T21:19:12.396Z,94604.28
2023-02-12T21:22:16.509Z,94609.72
2023-02-12T21:25:20.137Z,94610.50
2023-02-12T21:28:23.495Z,94602.94
2023-02-12T21:31:35.655Z,94604.63
2023-02-12T21:34:38.730Z,94602.75
2023-02-12T21:37:41.665Z,94597.53
2023-02-12T21:40:46.091Z,94593.78
2023-02-12T21:43:52.175Z,94595.66
2023-02-12T21:46:56.362Z,94593.38
2023-02-12T21:49:59.381Z,94600.22
2023-02-12T21:53:02.691Z,94596.47
2023-02-12T21:56:06.714Z,94590.16
2023-02-12T21:59:11.081Z,94588.25
2023-02-12T22:02:14.836Z,94591.38
2023-02-12T22:05:18.808Z,94595.56
2023-02-12T22:08:22.107Z,94589.44
2023-02-12T22:11:26.167Z,94593.69
2023-02-12T22:14:30.136Z,94593.69
2023-02-12T22:17:34.378Z,94594.41
2023-02-12T22:20:37.755Z,94604.94
2023-02-12T22:23:42.207Z,94601.22
2023-02-12T22:26:45.736Z,94595.34
2023-02-12T22:29:49.719Z,94590.63
2023-02-12T22:32:53.007Z,94587.63
2023-02-12T22:35:57.013Z,94589.50
2023-02-12T22:39:01.352Z,94606.13
2023-02-12T22:42:05.650Z,94615.31
2023-02-12T22:45:09.650Z,94630.84
2023-02-12T22:48:13.610Z,94623.34
2023-02-12T22:51:23.472Z,94619.34
2023-02-12T22:54:27.503Z,94626.84
2023-02-12T22:57:31.148Z,94628.72
2023-02-12T23:00:35.475Z,94617.47
2023-02-12T23:03:39.343Z,94616.06
2023-02-12T23:06:42.809Z,94619.50
2023-02-12T23:09:45.745Z,94622.28
2023-02-12T23:12:49.777Z,94634.56
2023-02-12T23:15:55.597Z,94630.06
2023-02-12T23:19:02.287Z,94633.34
2023-02-12T23:22:06.861Z,94638.78
2023-02-12T23:25:10.261Z,94645.16
2023-02-12T23:28:14.619Z,94650.78
2023-02-12T23:31:17.876Z,94646.53
2023-02-12T23:34:21.498Z,94652.09
2023-02-12T23:37:24.769Z,94663.63
2023-02-12T23:40:28.557Z,94668.13
2023-02-12T23:43:33.300Z,94670.25
2023-02-12T23:46:36.768Z,94668.56
2023-02-12T23:49:39.819Z,94670.88
2023-02-12T23:52:42.936Z,94655.75
2023-02-12T23:55:46.277Z,94661.69
2023-02-12T23:58:50.159Z,94673.38
